Weather History for Lancaster, SC

Change the Weather History Date:

Saturday, April 20, 2013

  Actual Average (KUZA) Record (KUZA)
Temperature  
Mean Temperature 52 °F -  
Max Temperature 64 °F 74 °F 94 °F (1968)
Min Temperature 41 °F 49 °F 25 °F (1983)
Degree Days  
Heating Degree Days 12    
Growing Degree Days 2 (Base 50)    
Moisture  
Dew Point 41 °F    
Average Humidity 69    
Maximum Humidity 100    
Minimum Humidity 26    
Precipitation  
Precipitation 0.00 in - - ()
Sea Level Pressure  
Sea Level Pressure 30.11 in    
Wind  
Wind Speed 5 mph (NNW)    
Max Wind Speed 12 mph    
Max Gust Speed -    
Visibility 10 miles    
Events Rain    
Averages and records for this station are not official NWS values.
T = Trace of Precipitation, MM = Missing Value Source: NWS Daily Summary

Daily Weather History Graph

Daily Weather History Graph

Search for Another Location

Airport:

Trip Planner

Search our weather history database for the weather conditions in past years. The results will help you decide how hot, cold, wet, or windy it might be!

Date:

Astronomy

Apr. 20, 2013 Rise Set
Actual Time 6:45 AM EDT 7:59 PM EDT
Civil Twilight 6:19 AM EDT 8:26 PM EDT
Nautical Twilight 5:47 AM EDT 8:57 PM EDT
Astronomical Twilight 5:15 AM EDT 9:30 PM EDT
Moon 2:54 PM EDT (4/20) 3:20 AM EDT (4/20)
Length of Visible Light 14h 07m
Length of Day
13h 14m
Waxing Gibbous, 71% of the Moon is Illuminated
Apr 20
Waxing Gibbous
Apr 25
Full
May 2
Last Quarter
May 9
New
May 18
First Quarter

Hourly Weather History & Observations

Time (EDT) Temp. Windchill Dew Point Humidity Pressure Visibility Wind Dir Wind Speed Gust Speed Precip Events Conditions
12:15 AM 53.6 °F - 51.8 °F 94% 29.94 in 10.0 mi WSW 8.1 mph - N/A Rain Light Rain
12:35 AM 53.6 °F - 53.6 °F 100% 29.94 in 10.0 mi WSW 5.8 mph - N/A Rain Light Rain
12:55 AM 53.6 °F - 53.6 °F 100% 29.93 in 10.0 mi West 5.8 mph - N/A Rain Light Rain
1:15 AM 53.6 °F - 53.6 °F 100% 29.92 in 10.0 mi West 8.1 mph - N/A Rain Light Rain
1:35 AM 53.6 °F - 53.6 °F 100% 29.94 in 10.0 mi WSW 5.8 mph - N/A Rain Light Rain
1:55 AM 53.6 °F - 53.6 °F 100% 29.95 in 10.0 mi WSW 4.6 mph - N/A Rain Light Rain
2:15 AM 53.6 °F - 53.6 °F 100% 29.97 in 10.0 mi SW 4.6 mph - N/A Rain Light Rain
2:35 AM 53.6 °F - 53.6 °F 100% 29.97 in 10.0 mi SW 4.6 mph - N/A Rain Light Rain
2:55 AM 51.8 °F - 51.8 °F 100% 29.97 in 10.0 mi WSW 3.5 mph - N/A Rain Light Rain
3:15 AM 51.8 °F - 51.8 °F 100% 29.97 in 10.0 mi WSW 3.5 mph - N/A Rain Light Rain
3:35 AM 50.0 °F - 50.0 °F 100% 29.97 in 10.0 mi Calm Calm - N/A Rain Light Rain
3:55 AM 50.0 °F - 50.0 °F 100% 29.98 in 10.0 mi Calm Calm - N/A Rain Light Rain
4:15 AM 50.0 °F - 50.0 °F 100% 29.98 in 10.0 mi NW 3.5 mph - N/A Rain Light Rain
4:35 AM 50.0 °F - 46.4 °F 87% 29.99 in 10.0 mi NNW 5.8 mph - N/A Rain Light Rain
4:55 AM 50.0 °F - 42.8 °F 76% 30.00 in 10.0 mi NNW 5.8 mph - N/A Rain Light Rain
5:15 AM 48.2 °F - 41.0 °F 76% 30.00 in 10.0 mi NNW 5.8 mph - N/A Rain Light Rain
5:35 AM 48.2 °F - 41.0 °F 76% 30.02 in 10.0 mi NNW 4.6 mph - N/A Rain Light Rain
5:55 AM 48.2 °F - 41.0 °F 76% 30.03 in 10.0 mi NNW 5.8 mph - N/A Rain Light Rain
6:15 AM 46.4 °F 45.2 °F 41.0 °F 81% 30.05 in 10.0 mi North 3.5 mph - N/A Rain Light Rain
6:35 AM 44.6 °F - 44.6 °F 100% 30.07 in 10.0 mi Calm Calm - N/A Rain Light Rain
6:55 AM 41.0 °F - 41.0 °F 100% 30.08 in 10.0 mi Calm Calm - N/A Rain Light Rain
7:15 AM 41.0 °F - 41.0 °F 100% 30.08 in 10.0 mi Calm Calm - N/A Rain Light Rain
7:35 AM 41.0 °F - 41.0 °F 100% 30.10 in 10.0 mi Calm Calm - N/A Rain Light Rain
7:55 AM 44.6 °F 43.1 °F 42.8 °F 93% 30.11 in 10.0 mi NNW 3.5 mph - N/A Rain Light Rain
8:15 AM 46.4 °F 45.2 °F 41.0 °F 81% 30.12 in 10.0 mi NNW 3.5 mph - N/A Rain Light Rain
8:35 AM 48.2 °F - 41.0 °F 76% 30.13 in 10.0 mi North 4.6 mph - N/A Rain Light Rain
8:55 AM 50.0 °F - 41.0 °F 71% 30.13 in 10.0 mi NNE 4.6 mph - N/A Rain Light Rain
9:15 AM 51.8 °F - 39.2 °F 62% 30.14 in 10.0 mi North 5.8 mph - N/A   Clear
9:35 AM 53.6 °F - 39.2 °F 58% 30.15 in 10.0 mi North 9.2 mph - N/A   Clear
9:55 AM 53.6 °F - 37.4 °F 54% 30.15 in 10.0 mi NE 9.2 mph - N/A   Clear
10:15 AM 53.6 °F - 37.4 °F 54% 30.16 in 10.0 mi NNE 9.2 mph - N/A   Clear
10:35 AM 53.6 °F - 35.6 °F 51% 30.16 in 10.0 mi North 6.9 mph - N/A   Clear
10:55 AM 55.4 °F - 33.8 °F 44% 30.17 in 10.0 mi North 10.4 mph - N/A   Clear
11:15 AM 55.4 °F - 35.6 °F 47% 30.17 in 10.0 mi NNE 11.5 mph - N/A   Clear
11:35 AM 55.4 °F - 32.0 °F 41% 30.18 in 10.0 mi North 10.4 mph - N/A   Clear
11:55 AM 57.2 °F - 33.8 °F 41% 30.18 in 10.0 mi NNW 6.9 mph - N/A   Clear
12:15 PM 57.2 °F - 33.8 °F 41% 30.18 in 10.0 mi Calm Calm - N/A   Clear
12:35 PM 59.0 °F - 35.6 °F 42% 30.17 in 10.0 mi North 5.8 mph - N/A   Clear
12:55 PM 59.0 °F - 33.8 °F 39% 30.17 in 10.0 mi WNW 8.1 mph - N/A   Clear
1:15 PM 59.0 °F - 32.0 °F 36% 30.16 in 10.0 mi NW 5.8 mph - N/A   Clear
1:35 PM 60.8 °F - 32.0 °F 34% 30.16 in 10.0 mi North 5.8 mph - N/A   Clear
1:55 PM 62.6 °F - 32.0 °F 32% 30.16 in 10.0 mi WNW 4.6 mph - N/A   Clear
2:15 PM 60.8 °F - 32.0 °F 34% 30.15 in 10.0 mi WNW 4.6 mph - N/A   Clear
2:35 PM 62.6 °F - 32.0 °F 32% 30.15 in 10.0 mi North 8.1 mph - N/A   Clear
2:55 PM 62.6 °F - 33.8 °F 34% 30.15 in 10.0 mi NNE 6.9 mph - N/A   Clear
3:15 PM 62.6 °F - 32.0 °F 32% 30.15 in 10.0 mi NNW 5.8 mph - N/A   Clear
3:35 PM 64.4 °F - 30.2 °F 28% 30.14 in 10.0 mi NNW 6.9 mph - N/A   Clear
3:55 PM 64.4 °F - 32.0 °F 30% 30.14 in 10.0 mi West 8.1 mph - N/A   Clear
4:15 PM 64.4 °F - 32.0 °F 30% 30.13 in 10.0 mi NW 8.1 mph - N/A   Clear
4:55 PM 64.4 °F - 30.2 °F 28% 30.13 in 10.0 mi NE 6.9 mph - N/A   Clear
5:15 PM 62.6 °F - 32.0 °F 32% 30.14 in 10.0 mi NNE 3.5 mph - N/A   Clear
5:35 PM 64.4 °F - 28.4 °F 26% 30.15 in 10.0 mi WNW 6.9 mph - N/A   Clear
5:55 PM 64.4 °F - 32.0 °F 30% 30.15 in 10.0 mi North 5.8 mph - N/A   Clear
6:15 PM 64.4 °F - 32.0 °F 30% 30.15 in 10.0 mi North 5.8 mph - N/A   Clear
6:35 PM 64.4 °F - 32.0 °F 30% 30.16 in 10.0 mi NNW 5.8 mph - N/A   Clear
6:55 PM 62.6 °F - 35.6 °F 37% 30.16 in 10.0 mi NNE 4.6 mph - N/A   Clear
7:15 PM 59.0 °F - 39.2 °F 48% 30.17 in 10.0 mi Calm Calm - N/A   Clear
7:35 PM 55.4 °F - 42.8 °F 63% 30.17 in 10.0 mi Calm Calm - N/A   Clear
7:55 PM 53.6 °F - 46.4 °F 77% 30.18 in 10.0 mi Calm Calm - N/A   Clear
8:15 PM 50.0 °F - 46.4 °F 87% 30.19 in 10.0 mi Calm Calm - N/A   Clear
8:35 PM 48.2 °F - 46.4 °F 93% 30.20 in 10.0 mi Calm Calm - N/A   Clear
8:55 PM 46.4 °F - 46.4 °F 100% 30.21 in 10.0 mi Calm Calm - N/A   Clear
9:15 PM 46.4 °F - 46.4 °F 100% 30.22 in 10.0 mi Calm Calm - N/A   Clear
9:35 PM 44.6 °F - 44.6 °F 100% 30.24 in 10.0 mi Calm Calm - N/A   Clear
9:55 PM 44.6 °F - 44.6 °F 100% 30.24 in 10.0 mi Calm Calm - N/A   Clear
10:15 PM 44.6 °F - 44.6 °F 100% 30.25 in 10.0 mi Calm Calm - N/A   Clear
10:55 PM 42.8 °F - 42.8 °F 100% 30.26 in 10.0 mi Calm Calm - N/A   Clear
11:15 PM 41.0 °F - 41.0 °F 100% 30.26 in 10.0 mi Calm Calm - N/A   Clear
11:35 PM 41.0 °F - 41.0 °F 100% 30.26 in 10.0 mi Calm Calm - N/A   Clear
11:55 PM 41.0 °F - 41.0 °F 100% 30.27 in 10.0 mi Calm Calm - N/A   Clear